createdAt,value
2023-03-22T00:01:43.438Z,100255.34
2023-03-22T00:04:46.199Z,100251.16
2023-03-22T00:07:54.247Z,100260.91
2023-03-22T00:10:56.876Z,100264.69
2023-03-22T00:13:59.755Z,100262.56
2023-03-22T00:17:02.467Z,100258.03
2023-03-22T00:20:08.653Z,100257.22
2023-03-22T00:23:11.534Z,100252.44
2023-03-22T00:26:15.139Z,100247.13
2023-03-22T00:29:19.957Z,100254.56
2023-03-22T00:32:22.792Z,100259.63
2023-03-22T00:35:25.801Z,100251.47
2023-03-22T00:38:42.482Z,100253.22
2023-03-22T00:41:46.293Z,100252.75
2023-03-22T00:44:48.921Z,100255.41
2023-03-22T00:47:51.530Z,100252.38
2023-03-22T00:50:54.234Z,100251.09
2023-03-22T00:53:56.874Z,100248.19
2023-03-22T00:56:59.402Z,100252.88
2023-03-22T01:00:16.132Z,100253.88
2023-03-22T01:03:22.031Z,100256.31
2023-03-22T01:06:25.004Z,100245.66
2023-03-22T01:09:30.962Z,100255.09
2023-03-22T01:12:33.499Z,100255.34
2023-03-22T01:15:36.704Z,100241.50
2023-03-22T01:18:39.623Z,100248.19
2023-03-22T01:21:42.856Z,100242.28
2023-03-22T01:24:45.439Z,100230.31
2023-03-22T01:27:48.260Z,100229.03
2023-03-22T01:30:51.473Z,100223.84
2023-03-22T01:33:54.193Z,100218.53
2023-03-22T01:36:58.525Z,100221.88
2023-03-22T01:40:01.757Z,100223.63
2023-03-22T01:43:11.890Z,100222.88
2023-03-22T01:46:14.916Z,100225.09
2023-03-22T01:49:24.316Z,100228.38
2023-03-22T01:52:27.704Z,100229.13
2023-03-22T01:55:44.017Z,100237.94
2023-03-22T01:58:52.390Z,100236.53
2023-03-22T02:02:02.858Z,100237.63
2023-03-22T02:05:05.477Z,100236.91
2023-03-22T02:08:08.937Z,100248.34
2023-03-22T02:11:38.614Z,100238.34
2023-03-22T02:15:10.909Z,100241.94
2023-03-22T02:19:10.998Z,100244.72
2023-03-22T02:22:45.242Z,100249.56
2023-03-22T02:26:07.138Z,100250.25
2023-03-22T02:29:34.938Z,100251.00
2023-03-22T02:32:52.659Z,100254.63
2023-03-22T02:36:11.275Z,100253.19
2023-03-22T02:39:38.855Z,100248.72
2023-03-22T02:43:01.451Z,100247.03
2023-03-22T02:46:20.384Z,100252.94
2023-03-22T02:49:33.076Z,100251.47
2023-03-22T02:52:44.324Z,100257.13
2023-03-22T02:55:52.783Z,100257.50
2023-03-22T02:58:59.597Z,100254.69
2023-03-22T03:02:03.842Z,100244.47
2023-03-22T03:05:08.610Z,100262.75
2023-03-22T03:08:14.332Z,100262.13
2023-03-22T03:11:18.300Z,100270.19
2023-03-22T03:14:29.087Z,100264.41
2023-03-22T03:18:00.983Z,100254.41
2023-03-22T03:21:09.910Z,100255.47
2023-03-22T03:24:36.677Z,100253.81
2023-03-22T03:27:51.064Z,100250.56
2023-03-22T03:31:03.544Z,100252.63
2023-03-22T03:34:13.580Z,100262.03
2023-03-22T03:37:22.857Z,100260.97
2023-03-22T03:40:33.000Z,100257.94
2023-03-22T03:43:37.241Z,100259.28
2023-03-22T03:46:41.820Z,100260.38
2023-03-22T03:49:44.608Z,100267.59
2023-03-22T03:52:47.251Z,100266.13
2023-03-22T03:55:49.926Z,100266.97
2023-03-22T03:58:53.096Z,100269.31
2023-03-22T04:01:56.303Z,100276.03
2023-03-22T04:05:04.701Z,100277.97
2023-03-22T04:08:07.882Z,100266.06
2023-03-22T04:11:10.685Z,100273.88
2023-03-22T04:14:14.914Z,100269.09
2023-03-22T04:17:17.668Z,100258.84
2023-03-22T04:20:20.997Z,100252.50
2023-03-22T04:23:25.734Z,100261.84
2023-03-22T04:26:29.368Z,100269.78
2023-03-22T04:30:01.386Z,100269.91
2023-03-22T04:33:39.589Z,100277.00
2023-03-22T04:36:54.460Z,100276.03
2023-03-22T04:40:16.042Z,100286.50
2023-03-22T04:43:35.650Z,100281.81
2023-03-22T04:46:42.859Z,100278.31
2023-03-22T04:49:46.260Z,100272.66
2023-03-22T04:52:51.319Z,100283.25
2023-03-22T04:55:57.577Z,100271.00
2023-03-22T04:59:02.522Z,100280.16
2023-03-22T05:02:05.628Z,100293.47
2023-03-22T05:05:16.477Z,100289.75
2023-03-22T05:08:25.200Z,100287.22
2023-03-22T05:11:28.579Z,100293.34
2023-03-22T05:14:54.469Z,100292.84
2023-03-22T05:18:02.248Z,100305.50
2023-03-22T05:21:16.559Z,100301.03
2023-03-22T05:24:20.742Z,100308.63
2023-03-22T05:27:31.510Z,100305.25
2023-03-22T05:30:48.806Z,100304.88
2023-03-22T05:34:12.244Z,100307.09
2023-03-22T05:37:16.859Z,100308.41
2023-03-22T05:40:29.459Z,100310.41
2023-03-22T05:43:32.903Z,100316.78
2023-03-22T05:46:35.913Z,100316.91
2023-03-22T05:50:01.464Z,100314.41
2023-03-22T05:53:05.658Z,100306.97
2023-03-22T05:56:28.613Z,100314.56
2023-03-22T05:59:39.277Z,100327.38
2023-03-22T06:02:47.323Z,100328.41
2023-03-22T06:05:54.966Z,100328.84
2023-03-22T06:09:16.958Z,100335.97
2023-03-22T06:12:27.210Z,100327.47
2023-03-22T06:15:49.041Z,100336.34
2023-03-22T06:18:56.063Z,100346.19
2023-03-22T06:21:58.805Z,100333.75
2023-03-22T06:25:02.862Z,100336.69
2023-03-22T06:28:12.846Z,100329.38
2023-03-22T06:31:22.892Z,100339.31
2023-03-22T06:34:31.039Z,100345.25
2023-03-22T06:37:33.831Z,100356.81
2023-03-22T06:40:36.752Z,100345.56
2023-03-22T06:43:39.546Z,100344.09
2023-03-22T06:47:03.222Z,100335.50
2023-03-22T06:50:24.287Z,100339.78
2023-03-22T06:53:42.388Z,100343.47
2023-03-22T06:56:46.174Z,100343.66
2023-03-22T06:59:48.765Z,100350.19
2023-03-22T07:02:52.767Z,100347.22
2023-03-22T07:06:07.760Z,100351.72
2023-03-22T07:09:13.734Z,100355.28
2023-03-22T07:12:18.737Z,100345.69
2023-03-22T07:15:24.818Z,100347.53
2023-03-22T07:18:34.504Z,100350.81
2023-03-22T07:21:37.085Z,100352.91
2023-03-22T07:24:55.712Z,100355.47
2023-03-22T07:28:00.835Z,100359.00
2023-03-22T07:31:07.311Z,100363.03
2023-03-22T07:34:28.677Z,100361.16
2023-03-22T07:37:38.312Z,100358.25
2023-03-22T07:40:46.561Z,100350.31
2023-03-22T07:43:58.263Z,100350.97
2023-03-22T07:47:06.180Z,100355.66
2023-03-22T07:50:15.370Z,100361.03
2023-03-22T07:53:20.467Z,100361.38
2023-03-22T07:56:23.503Z,100348.97
2023-03-22T07:59:26.527Z,100353.47
2023-03-22T08:02:30.378Z,100358.03
2023-03-22T08:05:35.359Z,100349.63
2023-03-22T08:08:40.700Z,100342.47
2023-03-22T08:11:43.875Z,100333.63
2023-03-22T08:14:50.577Z,100333.44
2023-03-22T08:17:58.370Z,100334.69
2023-03-22T08:21:11.187Z,100339.00
2023-03-22T08:24:15.276Z,100337.25
2023-03-22T08:27:47.551Z,100334.59
2023-03-22T08:30:51.729Z,100339.16
2023-03-22T08:33:56.567Z,100343.44
2023-03-22T08:36:59.170Z,100348.97
2023-03-22T08:40:02.097Z,100362.31
2023-03-22T08:43:13.195Z,100358.81
2023-03-22T08:46:15.862Z,100367.66
2023-03-22T08:49:20.797Z,100361.41
2023-03-22T08:52:31.108Z,100366.53
2023-03-22T08:55:49.240Z,100367.38
2023-03-22T08:59:12.066Z,100366.69
2023-03-22T09:02:30.319Z,100359.19
2023-03-22T09:05:34.154Z,100355.66
2023-03-22T09:08:37.030Z,100350.50
2023-03-22T09:11:44.872Z,100361.75
2023-03-22T09:14:49.225Z,100359.41
2023-03-22T09:17:52.633Z,100361.13
2023-03-22T09:20:55.463Z,100348.06
2023-03-22T09:24:03.172Z,100349.22
2023-03-22T09:27:16.103Z,100349.72
2023-03-22T09:30:22.749Z,100352.94
2023-03-22T09:33:25.657Z,100343.88
2023-03-22T09:36:34.858Z,100341.63
2023-03-22T09:39:38.535Z,100340.03
2023-03-22T09:42:54.967Z,100342.06
2023-03-22T09:45:58.778Z,100335.19
2023-03-22T09:49:06.178Z,100335.22
2023-03-22T09:52:14.462Z,100337.56
2023-03-22T09:55:30.429Z,100334.38
2023-03-22T09:58:36.176Z,100339.09
2023-03-22T10:01:52.224Z,100341.00
2023-03-22T10:05:09.832Z,100329.66
2023-03-22T10:08:32.446Z,100322.06
2023-03-22T10:11:38.088Z,100326.72
2023-03-22T10:14:46.854Z,100324.16
2023-03-22T10:17:55.244Z,100335.72
2023-03-22T10:21:04.451Z,100339.78
2023-03-22T10:24:17.009Z,100330.84
2023-03-22T10:27:21.997Z,100330.69
2023-03-22T10:30:28.650Z,100326.66
2023-03-22T10:33:37.659Z,100317.91
2023-03-22T10:36:41.604Z,100322.66
2023-03-22T10:39:51.325Z,100327.47
2023-03-22T10:43:03.717Z,100332.91
2023-03-22T10:46:12.504Z,100335.41
2023-03-22T10:49:28.600Z,100336.91
2023-03-22T10:52:37.042Z,100329.38
2023-03-22T10:55:44.277Z,100338.78
2023-03-22T10:58:51.307Z,100332.59
2023-03-22T11:01:54.318Z,100331.41
2023-03-22T11:05:00.977Z,100329.91
2023-03-22T11:08:04.042Z,100321.69
2023-03-22T11:11:17.720Z,100320.34
2023-03-22T11:14:26.839Z,100321.53
2023-03-22T11:17:31.184Z,100306.44
2023-03-22T11:20:35.030Z,100301.09
2023-03-22T11:23:42.071Z,100301.75
2023-03-22T11:27:05.713Z,100294.22
2023-03-22T11:30:21.972Z,100292.84
2023-03-22T11:33:26.059Z,100288.34
2023-03-22T11:36:29.410Z,100284.66
2023-03-22T11:39:32.081Z,100290.34
2023-03-22T11:42:35.773Z,100290.31
2023-03-22T11:45:42.682Z,100279.31
2023-03-22T11:48:48.531Z,100273.78
2023-03-22T11:51:52.371Z,100273.47
2023-03-22T11:54:56.468Z,100273.31
2023-03-22T11:57:58.989Z,100279.03
2023-03-22T12:01:02.943Z,100268.69
2023-03-22T12:04:11.542Z,100269.03
2023-03-22T12:07:17.250Z,100272.03
2023-03-22T12:10:26.709Z,100279.56
2023-03-22T12:14:01.781Z,100262.28
2023-03-22T12:17:24.474Z,100272.47
2023-03-22T12:20:52.119Z,100267.72
2023-03-22T12:24:01.110Z,100268.75
2023-03-22T12:27:27.086Z,100261.09
2023-03-22T12:30:33.904Z,100259.06
2023-03-22T12:33:50.384Z,100257.09
2023-03-22T12:36:56.862Z,100257.81
2023-03-22T12:40:06.038Z,100261.47
2023-03-22T12:43:14.455Z,100252.63
2023-03-22T12:46:22.220Z,100256.66
2023-03-22T12:49:52.406Z,100251.88
2023-03-22T12:52:57.055Z,100252.69
2023-03-22T12:56:01.099Z,100240.19
2023-03-22T12:59:08.437Z,100244.13
2023-03-22T13:02:27.574Z,100239.94
2023-03-22T13:05:33.892Z,100237.91
2023-03-22T13:09:09.153Z,100222.31
2023-03-22T13:12:17.547Z,100224.28
2023-03-22T13:15:41.374Z,100210.38
2023-03-22T13:18:45.325Z,100207.78
2023-03-22T13:21:50.024Z,100209.19
2023-03-22T13:25:13.268Z,100199.78
2023-03-22T13:28:26.241Z,100199.13
2023-03-22T13:31:46.547Z,100203.00
2023-03-22T13:34:52.824Z,100192.84
2023-03-22T13:38:03.069Z,100194.78
2023-03-22T13:41:25.931Z,100193.84
2023-03-22T13:44:39.127Z,100193.34
2023-03-22T13:47:46.903Z,100189.28
2023-03-22T13:50:52.336Z,100189.72
2023-03-22T13:54:20.667Z,100187.19
2023-03-22T13:57:59.414Z,100178.56
2023-03-22T14:01:49.640Z,100182.09
2023-03-22T14:04:57.244Z,100169.41
2023-03-22T14:08:04.359Z,100169.06
2023-03-22T14:11:28.899Z,100169.28
2023-03-22T14:14:40.580Z,100167.78
2023-03-22T14:17:47.047Z,100156.75
2023-03-22T14:20:55.064Z,100160.16
